Stations météo

Publicité
Chateau Chinon, France (7270): Température de l'air & dewpoint: 19.06.2018 21:00:00 - 25.06.2018 21:00:00 (CEST)Chateau Chinon, France (7270): Vitesse du vent & gusts: 19.06.2018 21:00:00 - 25.06.2018 21:00:00 (CEST)Chateau Chinon, France (7270): Direction du vent: 19.06.2018 21:00:00 - 25.06.2018 21:00:00 (CEST)Chateau Chinon, France (7270): Quantités de précipitations: 19.06.2018 21:00:00 - 25.06.2018 21:00:00 (CEST)
Date & Time tt [°C] td [°C] ff [km/h] ff [knt] fx [km/h] fx [knt] dd rr [mm]
25.06.2018 21:00:00 18,0 8,5 5 3 31 17 NE 0,0
25.06.2018 20:00:00 20,0 8,6 5 3 34 18 NE -
25.06.2018 19:00:00 21,5 9,1 5 3 34 18 NE 0,0
25.06.2018 18:00:00 22,3 10,1 8 4 31 17 ENE 0,0
25.06.2018 17:00:00 22,5 10,6 5 3 34 18 NE 0,0
25.06.2018 16:00:00 22,0 10,8 8 4 34 18 NE 0,0
25.06.2018 15:00:00 21,9 9,8 8 4 37 20 NE 0,0
25.06.2018 14:00:00 20,4 9,9 9 5 31 17 NE -
25.06.2018 13:00:00 20,8 10,0 5 3 28 15 NE 0,0
25.06.2018 12:00:00 19,5 9,1 8 4 34 18 NE 0,0
25.06.2018 11:00:00 19,1 9,0 4 2 26 14 NE 0,0
25.06.2018 10:00:00 19,0 8,0 4 2 18 10 NNE 0,0
25.06.2018 09:00:00 16,9 8,3 4 2 18 10 E 0,0
25.06.2018 08:00:00 16,2 8,7 2 1 21 11 ENE -
25.06.2018 07:00:00 11,7 7,8 4 2 18 10 ENE 0,0
25.06.2018 06:00:00 10,6 6,7 4 2 16 9 ENE 0,0
25.06.2018 05:00:00 10,1 6,6 4 2 18 10 ENE 0,0
25.06.2018 04:00:00 11,0 6,9 4 2 18 10 ENE 0,0
25.06.2018 03:00:00 11,8 6,7 8 4 29 16 ENE 0,0
25.06.2018 02:00:00 11,3 6,2 5 3 22 12 ENE -
25.06.2018 01:00:00 11,4 5,7 5 3 21 11 NE 0,0
25.06.2018 00:00:00 11,1 4,8 4 2 18 10 ENE 0,0
24.06.2018 23:00:00 12,3 3,8 5 3 21 11 ENE 0,0
24.06.2018 22:00:00 12,9 4,8 4 2 22 12 NE 0,0
24.06.2018 21:00:00 15,8 5,1 4 2 28 15 NE 0,0
24.06.2018 20:00:00 17,6 7,3 8 4 22 12 NNE -
24.06.2018 19:00:00 18,4 7,5 5 3 26 14 NNE 0,0
24.06.2018 18:00:00 19,5 6,9 8 4 24 13 NNE 0,0
24.06.2018 17:00:00 20,6 8,2 5 3 29 16 NNE 0,0
24.06.2018 16:00:00 20,6 6,9 5 3 28 15 N 0,0
24.06.2018 15:00:00 20,4 9,3 5 3 29 16 NNE 0,0
24.06.2018 14:00:00 20,3 7,6 5 3 26 14 NNE -
24.06.2018 13:00:00 20,2 7,5 4 2 24 13 ENE 0,0
24.06.2018 12:00:00 18,8 8,2 5 3 24 13 NE 0,0
24.06.2018 11:00:00 18,0 7,4 4 2 37 20 NNE 0,0
24.06.2018 10:00:00 17,3 6,5 8 4 39 21 ENE 0,0
24.06.2018 09:00:00 16,9 6,4 8 4 31 17 ENE 0,0
24.06.2018 08:00:00 13,0 6,1 5 3 28 15 ENE -
24.06.2018 07:00:00 12,3 7,0 5 3 31 17 ENE 0,0
24.06.2018 06:00:00 11,6 7,9 5 3 24 13 E 0,0
24.06.2018 05:00:00 9,7 7,3 4 2 15 8 ENE 0,0
24.06.2018 04:00:00 10,2 7,4 2 1 16 9 NE 0,0
24.06.2018 03:00:00 10,8 7,3 0 0 16 9 N 0,0
24.06.2018 02:00:00 12,0 7,9 4 2 21 11 E -
24.06.2018 01:00:00 12,2 8,5 4 2 26 14 ENE 0,0
24.06.2018 00:00:00 12,9 8,4 4 2 18 10 ENE 0,0
23.06.2018 23:00:00 13,5 8,1 4 2 24 13 ENE 0,0
23.06.2018 22:00:00 14,3 8,0 4 2 22 12 NE 0,0
23.06.2018 21:00:00 15,8 7,5 4 2 26 14 NE 0,0
23.06.2018 20:00:00 18,0 6,8 5 3 29 16 NE -
23.06.2018 19:00:00 20,4 6,7 4 2 24 13 ENE 0,0
23.06.2018 18:00:00 20,0 7,7 5 3 28 15 NNE 0,0
23.06.2018 17:00:00 20,5 6,4 4 2 24 13 NE 0,0
23.06.2018 16:00:00 20,8 6,7 5 3 24 13 NE 0,0
23.06.2018 15:00:00 20,3 6,2 5 3 29 16 NE 0,0
23.06.2018 14:00:00 19,7 5,7 5 3 26 14 NE -
23.06.2018 13:00:00 19,0 6,8 5 3 22 12 NE 0,0
23.06.2018 12:00:00 17,6 5,2 8 4 26 14 NNE 0,0
23.06.2018 11:00:00 17,1 5,1 4 2 22 12 ENE 0,0
23.06.2018 10:00:00 16,2 5,8 5 3 21 11 ENE 0,0
23.06.2018 09:00:00 14,3 6,1 4 2 22 12 ENE 0,0
23.06.2018 08:00:00 12,3 5,7 5 3 18 10 ENE -
23.06.2018 07:00:00 9,5 5,3 4 2 28 15 ENE 0,0
23.06.2018 06:00:00 8,6 4,6 4 2 28 15 ENE 0,0
23.06.2018 05:00:00 8,7 4,9 4 2 28 15 ENE 0,0
23.06.2018 04:00:00 9,0 5,2 8 4 24 13 ENE 0,0
23.06.2018 03:00:00 8,7 4,5 5 3 22 12 ENE 0,0
23.06.2018 02:00:00 9,8 4,6 8 4 29 16 NE -
23.06.2018 01:00:00 10,2 5,0 4 2 22 12 NE 0,0
23.06.2018 00:00:00 10,1 5,5 5 3 22 12 ENE 0,0
22.06.2018 23:00:00 10,2 5,6 2 1 13 7 E 0,0
22.06.2018 22:00:00 12,0 5,6 4 2 24 13 ENE 0,0
22.06.2018 21:00:00 13,9 5,3 8 4 31 17 NE 0,0
22.06.2018 20:00:00 15,6 4,9 8 4 37 20 NE -
22.06.2018 19:00:00 17,1 5,4 9 5 41 22 NE 0,0
22.06.2018 18:00:00 18,0 4,9 8 4 39 21 NE 0,0
22.06.2018 17:00:00 18,0 4,9 11 6 31 17 NE 0,0
22.06.2018 16:00:00 18,4 4,9 8 4 35 19 NE 0,0
22.06.2018 15:00:00 19,0 5,8 5 3 39 21 N 0,0
22.06.2018 14:00:00 17,9 5,5 5 3 31 17 ENE -
22.06.2018 13:00:00 17,5 6,1 8 4 37 20 E 0,0
22.06.2018 12:00:00 16,0 3,7 9 5 44 24 ENE 0,0
22.06.2018 11:00:00 14,9 4,6 8 4 34 18 NE 0,0
22.06.2018 10:00:00 13,4 2,9 5 3 41 22 ENE 0,0
22.06.2018 09:00:00 12,3 2,2 5 3 28 15 NE 0,0
22.06.2018 08:00:00 10,0 3,3 8 4 42 23 ENE -
22.06.2018 07:00:00 7,7 3,7 8 4 35 19 ENE 0,0
22.06.2018 06:00:00 6,6 3,6 8 4 34 18 ENE 0,0
22.06.2018 05:00:00 7,0 3,2 8 4 34 18 ENE 0,0
22.06.2018 04:00:00 7,8 2,9 9 5 37 20 ENE 0,0
22.06.2018 03:00:00 8,4 4,0 9 5 37 20 ENE 0,0
22.06.2018 02:00:00 9,3 4,3 9 5 42 23 NE -
22.06.2018 01:00:00 10,7 4,8 9 5 37 20 ENE 0,0
22.06.2018 00:00:00 12,1 5,5 5 3 29 16 ENE 0,0
21.06.2018 23:00:00 13,2 6,8 5 3 34 18 NE 0,0
21.06.2018 22:00:00 14,7 8,2 9 5 41 22 NNE 0,0
21.06.2018 21:00:00 16,7 11,6 8 4 26 14 NE 0,0
21.06.2018 20:00:00 18,5 12,7 5 3 26 14 NNE -
21.06.2018 19:00:00 19,6 13,5 8 4 31 17 N 0,0
21.06.2018 18:00:00 22,2 14,1 4 2 35 19 NNW 0,0
21.06.2018 17:00:00 23,6 14,9 5 3 24 13 NNW 0,0
21.06.2018 16:00:00 24,5 14,6 5 3 28 15 NNW 0,0
21.06.2018 15:00:00 26,8 13,5 4 2 21 11 N 0,0
21.06.2018 14:00:00 25,5 14,0 4 2 21 11 NW -
21.06.2018 13:00:00 24,0 13,5 4 2 18 10 NNW 0,0
21.06.2018 12:00:00 24,6 11,5 4 2 21 11 NNW 0,0
21.06.2018 11:00:00 24,2 10,8 4 2 21 11 NW 0,0
21.06.2018 10:00:00 23,6 11,6 4 2 13 7 N 0,0
21.06.2018 09:00:00 24,0 13,8 2 1 15 8 E 0,0
21.06.2018 08:00:00 21,7 14,3 2 1 9 5 E -
21.06.2018 07:00:00 17,0 12,5 4 2 11 6 E 0,0
21.06.2018 06:00:00 16,5 11,8 4 2 13 7 E 0,0
21.06.2018 05:00:00 17,0 12,3 4 2 13 7 E 0,0
21.06.2018 04:00:00 17,4 12,5 4 2 15 8 E 0,0
21.06.2018 03:00:00 17,4 12,5 4 2 11 6 E 0,0
21.06.2018 02:00:00 17,8 12,7 4 2 11 6 E -
21.06.2018 01:00:00 18,2 13,3 4 2 13 7 E 0,0
21.06.2018 00:00:00 19,1 12,8 5 3 24 13 E 0,0
20.06.2018 23:00:00 19,5 13,4 5 3 22 12 E 0,0
20.06.2018 22:00:00 20,9 13,3 4 2 15 8 ENE 0,0
20.06.2018 21:00:00 23,0 12,3 4 2 16 9 NE 0,0
20.06.2018 20:00:00 25,6 12,8 4 2 15 8 NW -
20.06.2018 19:00:00 27,8 14,4 4 2 15 8 N 0,0
20.06.2018 18:00:00 27,8 14,8 4 2 15 8 NNE 0,0
20.06.2018 17:00:00 28,6 15,5 4 2 11 6 N 0,0
20.06.2018 16:00:00 28,6 14,8 4 2 15 8 W 0,0
20.06.2018 15:00:00 28,2 14,8 4 2 16 9 NNW 0,0
20.06.2018 14:00:00 26,4 15,4 4 2 13 7 N -
20.06.2018 13:00:00 25,7 15,7 5 3 11 6 SW 0,0
20.06.2018 12:00:00 25,0 17,0 4 2 11 6 WNW 0,0
20.06.2018 11:00:00 24,6 16,1 4 2 11 6 WNW 0,0
20.06.2018 10:00:00 23,2 16,0 4 2 9 5 W 0,0
20.06.2018 09:00:00 22,2 15,5 4 2 13 7 E 0,0
20.06.2018 08:00:00 19,9 15,3 4 2 18 10 E -
20.06.2018 07:00:00 15,8 14,7 4 2 18 10 E 0,0
20.06.2018 06:00:00 14,7 13,9 5 3 18 10 E 0,2
20.06.2018 05:00:00 14,6 13,8 4 2 15 8 E 0,0
20.06.2018 04:00:00 14,6 13,8 4 2 18 10 E 0,0
20.06.2018 03:00:00 14,7 14,1 4 2 16 9 E 0,0
20.06.2018 02:00:00 14,6 13,8 4 2 11 6 E -
20.06.2018 01:00:00 15,6 14,1 4 2 26 14 E 0,0
20.06.2018 00:00:00 16,5 14,5 4 2 29 16 NE 0,0
19.06.2018 23:00:00 17,2 14,8 8 4 28 15 ENE 0,0
19.06.2018 22:00:00 18,3 14,8 5 3 21 11 ENE 0,0
19.06.2018 21:00:00 20,2 13,9 4 2 26 14 NE 0,0

tt = Température de l'air
td = dewpoint
ff = Vitesse du vent
fx = gusts
dd = Direction du vent
rr = Quantités de précipitations

stations d'obs. à proximité